Time;durP1;ratioP1;P1;durP2;ratioP2;P2;SDS_P1;SDS_P2;PMS_P1;PMS_P2;Temp;Humidity;BMP_temperature;BMP_pressure;BME280_temperature;BME280_humidity;BME280_pressure;Samples;Min_cycle;Max_cycle;Signal;HPM_P1;HPM_P2
2022/12/25 00:00:32;;;;;;;0.50;0.50;;;;;;;8.99;100.00;99588.97;5052244;28;20266;-61
2022/12/25 00:02:59;;;;;;;0.50;0.50;;;;;;;8.96;100.00;99589.03;5051511;28;20228;-61
2022/12/25 00:05:26;;;;;;;0.60;0.60;;;;;;;8.89;100.00;99578.09;5052220;28;20699;-61
2022/12/25 00:07:53;;;;;;;0.60;0.60;;;;;;;9.02;100.00;99591.47;5051979;28;20274;-62
2022/12/25 00:10:19;;;;;;;0.40;0.40;;;;;;;9.01;100.00;99597.47;5051696;28;20201;-61
2022/12/25 00:12:46;;;;;;;0.60;0.60;;;;;;;9.06;100.00;99605.88;5052352;28;20223;-61
2022/12/25 00:15:13;;;;;;;0.67;0.67;;;;;;;9.04;100.00;99602.53;5051959;28;20679;-61
2022/12/25 00:17:41;;;;;;;0.50;0.50;;;;;;;9.04;100.00;99612.75;5051583;28;20203;-60
2022/12/25 00:20:09;;;;;;;0.43;0.43;;;;;;;8.99;100.00;99614.53;5050905;28;20204;-61
2022/12/25 00:22:38;;;;;;;0.40;0.40;;;;;;;8.98;100.00;99610.31;5051411;28;20247;-61
2022/12/25 00:25:05;;;;;;;0.40;0.40;;;;;;;8.88;100.00;99601.16;5049015;28;20200;-61
2022/12/25 00:27:33;;;;;;;0.83;0.83;;;;;;;9.00;100.00;99626.47;5051428;28;20215;-61
2022/12/25 00:30:00;;;;;;;0.50;0.50;;;;;;;8.87;100.00;99607.97;5051786;28;20247;-61
2022/12/25 00:32:27;;;;;;;0.50;0.50;;;;;;;8.95;100.00;99618.03;5051642;28;20572;-61
2022/12/25 00:34:55;;;;;;;0.60;0.60;;;;;;;8.82;100.00;99616.63;5051523;28;20588;-62
2022/12/25 00:37:22;;;;;;;0.40;0.40;;;;;;;8.79;100.00;99616.63;5051065;28;20204;-61
2022/12/25 00:39:49;;;;;;;0.50;0.50;;;;;;;8.75;100.00;99621.00;5051370;28;20284;-61
2022/12/25 00:42:22;;;;;;;0.40;0.40;;;;;;;8.69;100.00;99610.06;5051267;28;20203;-61
2022/12/25 00:44:50;;;;;;;0.43;0.43;;;;;;;8.74;100.00;99618.47;5051157;28;20221;-61
2022/12/25 00:47:18;;;;;;;0.50;0.50;;;;;;;8.74;100.00;99618.47;5051279;28;20204;-60
2022/12/25 00:49:45;;;;;;;0.50;0.50;;;;;;;8.76;100.00;99617.56;5051462;28;20303;-61
2022/12/25 00:52:13;;;;;;;0.40;0.40;;;;;;;8.80;100.00;99613.22;5051436;28;20693;-62
2022/12/25 00:54:40;;;;;;;0.60;0.60;;;;;;;8.84;100.00;99617.41;5049866;28;20327;-62
2022/12/25 00:57:06;;;;;;;0.50;0.50;;;;;;;8.81;100.00;99608.09;5051885;28;20207;-61
2022/12/25 00:59:34;;;;;;;0.57;0.57;;;;;;;8.66;100.00;99590.47;5050631;28;20201;-61
2022/12/25 01:04:42;;;;;;;0.40;0.40;;;;;;;8.82;100.00;99614.06;5048659;28;20212;-62
2022/12/25 01:07:09;;;;;;;0.60;0.60;;;;;;;8.88;100.00;99616.50;5050910;28;20676;-61
2022/12/25 01:12:21;;;;;;;0.60;0.60;;;;;;;8.92;100.00;99610.41;5049236;28;20211;-62
2022/12/25 01:14:48;;;;;;;0.50;0.50;;;;;;;8.93;100.00;99609.56;5049505;28;20213;-61
2022/12/25 01:17:15;;;;;;;0.70;0.70;;;;;;;8.98;100.00;99612.88;5050349;28;20208;-61
2022/12/25 01:19:42;;;;;;;0.47;0.47;;;;;;;9.03;100.00;99618.72;5050252;28;20251;-62
2022/12/25 01:22:09;;;;;;;0.57;0.57;;;;;;;9.06;100.00;99618.66;5049856;28;20215;-61
2022/12/25 01:24:37;;;;;;;0.60;0.60;;;;;;;9.03;100.00;99605.09;5048568;28;20228;-61
2022/12/25 01:27:04;;;;;;;0.60;0.60;;;;;;;9.24;100.00;99625.94;5049215;28;20208;-62
2022/12/25 01:29:31;;;;;;;0.50;0.50;;;;;;;9.13;100.00;99621.94;5050819;28;20213;-61
2022/12/25 01:31:57;;;;;;;0.40;0.40;;;;;;;9.25;100.00;99645.53;5050237;28;20207;-61
2022/12/25 01:34:24;;;;;;;0.50;0.50;;;;;;;9.27;100.00;99646.34;5048745;28;20240;-62
2022/12/25 01:36:51;;;;;;;0.50;0.50;;;;;;;9.15;100.00;99623.59;5050361;28;20554;-61
2022/12/25 01:39:18;;;;;;;0.60;0.60;;;;;;;9.14;100.00;99624.47;5050432;28;20201;-61
2022/12/25 01:41:46;;;;;;;0.43;0.43;;;;;;;9.10;100.00;99634.78;5050450;28;20189;-61
2022/12/25 01:44:46;;;;;;;0.50;0.50;;;;;;;9.12;100.00;99650.94;5050085;28;20257;-61
2022/12/25 01:47:16;;;;;;;0.50;0.50;;;;;;;9.11;100.00;99647.53;5048725;28;20227;-62
2022/12/25 01:49:48;;;;;;;0.53;0.53;;;;;;;9.08;100.00;99645.03;5050269;28;20352;-62
2022/12/25 01:52:18;;;;;;;0.50;0.50;;;;;;;9.03;100.00;99643.44;5050240;28;20263;-62
2022/12/25 01:54:50;;;;;;;0.50;0.50;;;;;;;9.01;100.00;99638.38;5050189;28;20216;-62
2022/12/25 01:57:22;;;;;;;0.40;0.40;;;;;;;8.99;100.00;99635.00;5049875;28;20288;-61
2022/12/25 01:59:49;;;;;;;0.57;0.57;;;;;;;8.98;100.00;99641.00;5048947;28;20205;-62
2022/12/25 02:02:16;;;;;;;0.40;0.40;;;;;;;8.94;100.00;99632.56;5050216;28;20286;-61
2022/12/25 02:04:48;;;;;;;0.40;0.40;;;;;;;8.89;100.00;99641.16;5049280;28;20568;-61
2022/12/25 02:07:17;;;;;;;0.60;0.60;;;;;;;8.84;100.00;99645.53;5048405;28;20197;-61
2022/12/25 02:09:45;;;;;;;1.00;1.00;;;;;;;8.75;100.00;99635.50;5050167;28;20558;-62
2022/12/25 02:12:17;;;;;;;0.50;0.50;;;;;;;8.77;100.00;99643.97;5050313;28;20266;-61
2022/12/25 02:14:48;;;;;;;0.40;0.40;;;;;;;8.78;100.00;99645.66;5049824;28;20224;-61
2022/12/25 02:17:22;;;;;;;0.60;0.60;;;;;;;8.75;100.00;99646.56;5049671;28;20246;-61
2022/12/25 02:20:08;;;;;;;0.40;0.40;;;;;;;8.71;100.00;99644.06;5050253;28;20635;-61
2022/12/25 02:22:47;;;;;;;0.50;0.50;;;;;;;8.66;100.00;99641.59;5049913;28;20204;-62
2022/12/25 02:25:32;;;;;;;0.50;0.50;;;;;;;8.66;100.00;99646.69;5047576;28;20197;-61
2022/12/25 02:28:13;;;;;;;0.47;0.47;;;;;;;8.69;100.00;99650.94;5049531;28;20205;-61
2022/12/25 02:30:44;;;;;;;0.50;0.50;;;;;;;8.71;100.00;99654.31;5049170;28;20212;-62
2022/12/25 02:36:05;;;;;;;0.50;0.50;;;;;;;8.65;100.00;99656.97;5047044;28;20715;-61
2022/12/25 02:38:37;;;;;;;0.57;0.57;;;;;;;8.62;100.00;99659.59;5048448;28;20216;-61
2022/12/25 02:41:08;;;;;;;0.53;0.53;;;;;;;8.54;100.00;99657.16;5049469;28;20193;-61
2022/12/25 03:11:50;;;;;;;0.60;0.60;;;;;;;8.14;100.00;99672.28;5052662;28;20192;-61
2022/12/25 03:17:03;;;;;;;0.50;0.50;;;;;;;8.31;100.00;99700.13;5051572;28;20301;-61
2022/12/25 03:27:55;;;;;;;0.50;0.50;;;;;;;8.28;100.00;99701.03;5052589;28;20692;-61
2022/12/25 03:33:19;;;;;;;0.70;0.70;;;;;;;8.29;100.00;99707.84;5051932;28;20207;-62
2022/12/25 03:36:01;;;;;;;0.53;0.53;;;;;;;8.33;100.00;99709.47;5052242;28;20201;-62
2022/12/25 04:36:43;;;;;;;0.47;0.47;;;;;;;7.91;100.00;99804.53;5051026;28;20254;-61
2022/12/25 04:39:11;;;;;;;0.60;0.60;;;;;;;7.81;100.00;99797.88;5051024;28;20205;-62
2022/12/25 04:41:38;;;;;;;0.50;0.50;;;;;;;7.54;100.00;99775.22;5050878;28;20266;-62
2022/12/25 04:44:05;;;;;;;0.40;0.40;;;;;;;7.68;100.00;99822.69;5051140;28;20200;-62
2022/12/25 04:46:31;;;;;;;0.40;0.40;;;;;;;7.60;100.00;99815.97;5051617;28;20204;-61
2022/12/25 04:48:58;;;;;;;0.50;0.50;;;;;;;7.63;100.00;99805.72;5051386;28;20211;-61
2022/12/25 04:51:26;;;;;;;0.50;0.50;;;;;;;7.54;100.00;99801.59;5048131;28;20262;-62
2022/12/25 04:53:53;;;;;;;0.40;0.40;;;;;;;7.67;100.00;99822.69;5050839;28;20639;-62
2022/12/25 04:56:22;;;;;;;0.50;0.50;;;;;;;7.61;100.00;99812.56;5050299;28;20657;-62
2022/12/25 04:58:49;;;;;;;1.13;1.13;;;;;;;7.67;100.00;99831.19;5051277;28;20699;-61
2022/12/25 05:01:16;;;;;;;0.40;0.40;;;;;;;7.53;100.00;99814.38;5051271;28;20220;-61
2022/12/25 05:03:43;;;;;;;0.40;0.40;;;;;;;7.65;100.00;99832.09;5051411;28;20683;-62
2022/12/25 05:06:09;;;;;;;0.63;0.63;;;;;;;7.60;100.00;99831.28;5050307;28;20270;-62
2022/12/25 05:08:37;;;;;;;0.50;0.50;;;;;;;7.54;100.00;99831.34;5050132;28;20568;-61
2022/12/25 05:11:08;;;;;;;0.50;0.50;;;;;;;7.52;100.00;99833.09;5048149;28;20254;-61
2022/12/25 05:13:36;;;;;;;0.87;0.87;;;;;;;7.47;100.00;99822.06;5046054;28;20657;-61
2022/12/25 05:16:05;;;;;;;0.50;0.50;;;;;;;7.55;100.00;99838.16;5050218;28;20201;-62
2022/12/25 05:18:32;;;;;;;0.83;0.83;;;;;;;7.59;100.00;99847.47;5046019;28;20196;-61
2022/12/25 05:20:59;;;;;;;0.50;0.50;;;;;;;7.55;100.00;99830.50;5049571;28;20205;-61
2022/12/25 05:23:26;;;;;;;0.50;0.50;;;;;;;7.62;100.00;99855.94;5049596;28;20220;-62
2022/12/25 05:25:52;;;;;;;0.40;0.40;;;;;;;7.54;100.00;99851.75;5049029;28;20204;-62
2022/12/25 05:28:19;;;;;;;0.50;0.50;;;;;;;7.55;100.00;99856.00;5049880;28;20196;-62
2022/12/25 05:30:47;;;;;;;0.57;0.50;;;;;;;7.60;100.00;99861.88;5049679;28;20208;-61
2022/12/25 05:33:15;;;;;;;0.50;0.50;;;;;;;7.54;100.00;99856.84;5050338;28;20204;-61
2022/12/25 05:35:41;;;;;;;0.53;0.53;;;;;;;7.59;100.00;99862.78;5050547;28;20216;-62
2022/12/25 05:38:08;;;;;;;0.50;0.50;;;;;;;7.57;100.00;99859.38;5050497;28;20227;-62
2022/12/25 05:40:39;;;;;;;0.50;0.50;;;;;;;7.56;100.00;99860.25;5050685;28;20215;-61
2022/12/25 05:43:06;;;;;;;0.57;0.57;;;;;;;7.53;100.00;99855.19;5050953;28;20610;-62
2022/12/25 05:45:33;;;;;;;0.40;0.40;;;;;;;7.60;100.00;99872.09;5050032;28;20250;-61
2022/12/25 05:48:01;;;;;;;0.53;0.53;;;;;;;7.64;100.00;99878.88;5050118;28;20201;-62
2022/12/25 05:50:28;;;;;;;0.63;0.63;;;;;;;7.64;100.00;99878.88;5050070;28;20209;-61
2022/12/25 05:52:55;;;;;;;0.50;0.50;;;;;;;7.66;100.00;99888.19;5050639;28;20664;-61
2022/12/25 05:55:21;;;;;;;0.60;0.60;;;;;;;7.67;100.00;99899.25;5049761;28;20209;-62
2022/12/25 05:57:49;;;;;;;0.60;0.60;;;;;;;7.66;100.00;99905.19;5050504;28;20580;-62
2022/12/25 06:00:16;;;;;;;0.50;0.50;;;;;;;7.60;100.00;99897.59;5050229;28;20211;-61
2022/12/25 06:02:42;;;;;;;0.50;0.50;;;;;;;7.60;100.00;99903.56;5047317;28;20376;-61
2022/12/25 06:05:11;;;;;;;0.40;0.40;;;;;;;7.60;100.00;99907.81;5047292;28;20278;-61
2022/12/25 06:07:37;;;;;;;0.40;0.40;;;;;;;7.63;100.00;99921.38;5047138;28;20622;-61
2022/12/25 06:10:05;;;;;;;0.57;0.57;;;;;;;7.64;100.00;99928.19;5046995;28;20209;-61
2022/12/25 06:12:32;;;;;;;0.40;0.40;;;;;;;7.66;100.00;99936.66;5046031;28;20200;-62
2022/12/25 06:14:59;;;;;;;0.60;0.60;;;;;;;7.66;100.00;99935.81;5047768;28;20645;-61
2022/12/25 06:17:26;;;;;;;0.53;0.53;;;;;;;7.70;100.00;99940.03;5048390;28;20204;-61
2022/12/25 06:19:53;;;;;;;1.47;0.83;;;;;;;7.72;100.00;99948.53;5048701;28;20258;-62
2022/12/25 06:22:22;;;;;;;0.60;0.60;;;;;;;7.72;100.00;99946.00;5050142;28;20212;-62
2022/12/25 06:24:48;;;;;;;0.50;0.50;;;;;;;7.76;100.00;99947.63;5052351;28;20204;-62
2022/12/25 06:27:15;;;;;;;0.50;0.50;;;;;;;7.75;100.00;99948.50;5052590;28;20602;-62
2022/12/25 06:29:42;;;;;;;0.40;0.40;;;;;;;7.77;100.00;99950.19;5051554;28;20287;-61
2022/12/25 06:32:09;;;;;;;1.07;1.07;;;;;;;7.81;100.00;99958.66;5051570;28;20201;-61
2022/12/25 06:34:36;;;;;;;0.50;0.50;;;;;;;7.86;100.00;99964.53;5052772;28;20684;-61
2022/12/25 06:37:02;;;;;;;0.70;0.70;;;;;;;7.89;100.00;99960.25;5052290;28;20196;-61
2022/12/25 06:39:31;;;;;;;0.50;0.50;;;;;;;7.94;100.00;99960.22;5052225;28;20227;-61
2022/12/25 06:41:58;;;;;;;0.57;0.57;;;;;;;7.97;100.00;99960.19;5052038;28;20287;-61
2022/12/25 06:44:25;;;;;;;0.50;0.50;;;;;;;7.93;100.00;99961.94;5052672;28;20197;-62
2022/12/25 06:46:53;;;;;;;0.87;0.83;;;;;;;8.07;100.00;99977.09;5050650;28;20201;-61
2022/12/25 06:49:20;;;;;;;1.13;1.13;;;;;;;8.11;100.00;99988.13;5049698;28;20204;-62
2022/12/25 06:51:47;;;;;;;0.93;0.93;;;;;;;8.16;100.00;99986.34;5051603;28;20216;-61
2022/12/25 06:54:14;;;;;;;0.50;0.50;;;;;;;8.22;100.00;99994.81;5050485;28;20224;-62
2022/12/25 06:56:42;;;;;;;0.60;0.60;;;;;;;8.24;100.00;99995.63;5049795;28;20204;-62
2022/12/25 06:59:11;;;;;;;0.50;0.50;;;;;;;8.27;100.00;99997.31;5051516;28;20204;-61
2022/12/25 07:01:44;;;;;;;0.50;0.50;;;;;;;8.24;100.00;99985.41;5051437;28;20232;-61
2022/12/25 07:04:15;;;;;;;0.53;0.53;;;;;;;8.33;100.00;99999.81;5052175;28;20209;-61
2022/12/25 07:06:42;;;;;;;0.80;0.80;;;;;;;8.33;100.00;100000.69;5051395;28;20209;-62
2022/12/25 07:09:09;;;;;;;0.57;0.57;;;;;;;8.32;100.00;99998.97;5051256;28;20205;-62
2022/12/25 07:11:36;;;;;;;0.60;0.60;;;;;;;8.32;100.00;99998.97;5051386;28;20211;-62
2022/12/25 07:14:04;;;;;;;0.87;0.87;;;;;;;8.38;100.00;100004.00;5048886;28;20263;-62
2022/12/25 07:16:31;;;;;;;0.40;0.40;;;;;;;8.40;100.00;100012.50;5053444;28;20205;-62
2022/12/25 07:18:59;;;;;;;0.60;0.60;;;;;;;8.46;100.00;100015.84;5047987;28;20687;-62
2022/12/25 07:21:26;;;;;;;0.50;0.50;;;;;;;8.52;100.00;100020.88;5053785;28;20307;-62
2022/12/25 07:23:53;;;;;;;0.50;0.50;;;;;;;8.60;100.00;100024.19;5050808;28;20212;-61
2022/12/25 07:26:20;;;;;;;0.50;0.50;;;;;;;8.66;100.00;100021.59;5050097;28;20205;-62
2022/12/25 07:28:47;;;;;;;0.50;0.50;;;;;;;8.74;100.00;100022.31;5052050;28;20262;-61
2022/12/25 07:31:17;;;;;;;0.40;0.40;;;;;;;8.76;100.00;100028.25;5049673;28;20209;-62
2022/12/25 07:33:45;;;;;;;0.47;0.47;;;;;;;8.83;100.00;100022.19;5051359;28;20207;-62
2022/12/25 07:36:13;;;;;;;0.40;0.40;;;;;;;8.88;100.00;100025.53;5052179;28;20220;-62
2022/12/25 07:38:40;;;;;;;0.50;0.50;;;;;;;8.98;100.00;100026.25;5049243;28;20283;-62
2022/12/25 07:41:08;;;;;;;0.60;0.60;;;;;;;9.22;100.00;100026.75;5050900;28;20296;-61
2022/12/25 07:43:36;;;;;;;0.57;0.57;;;;;;;9.26;100.00;100030.97;5047354;28;20701;-61
2022/12/25 07:46:03;;;;;;;0.33;0.33;;;;;;;9.34;100.00;100036.78;5049604;28;20277;-62
2022/12/25 07:48:32;;;;;;;0.97;0.97;;;;;;;9.38;100.00;100042.72;5050559;28;20197;-62
2022/12/25 07:51:00;;;;;;;0.40;0.40;;;;;;;9.45;100.00;100044.31;5052162;28;20647;-61
2022/12/25 07:53:27;;;;;;;1.13;0.83;;;;;;;9.44;100.00;100028.13;5051226;28;20200;-61
2022/12/25 07:55:58;;;;;;;0.40;0.40;;;;;;;9.67;100.00;100039.69;5049593;28;20216;-61
2022/12/25 07:58:25;;;;;;;0.50;0.50;;;;;;;9.82;100.00;100030.03;5047018;28;20722;-62
2022/12/25 08:00:53;;;;;;;1.00;1.00;;;;;;;9.94;100.00;100036.69;5049516;28;20212;-62
2022/12/25 08:03:20;;;;;;;0.53;0.53;;;;;;;10.09;100.00;100049.22;5050485;28;20274;-68
2022/12/25 08:05:48;;;;;;;0.40;0.40;;;;;;;10.20;100.00;100049.91;5049283;28;20197;-68
2022/12/25 08:08:15;;;;;;;0.43;0.43;;;;;;;10.32;100.00;100069.34;5050145;28;20201;-67
2022/12/25 08:10:48;;;;;;;0.40;0.40;;;;;;;10.40;100.00;100044.41;5049941;28;20216;-67
2022/12/25 08:13:15;;;;;;;0.43;0.43;;;;;;;10.64;100.00;100063.59;5048961;28;20306;-67
2022/12/25 08:15:42;;;;;;;0.60;0.60;;;;;;;10.66;100.00;100072.09;5048696;28;20227;-67
2022/12/25 08:18:09;;;;;;;0.43;0.43;;;;;;;10.78;100.00;100074.41;5047911;28;20614;-67
2022/12/25 08:20:36;;;;;;;0.40;0.40;;;;;;;10.87;100.00;100069.09;5048354;28;20205;-67
2022/12/25 08:23:04;;;;;;;0.40;0.40;;;;;;;11.00;100.00;100073.09;5046629;28;20254;-67
2022/12/25 08:25:31;;;;;;;0.50;0.50;;;;;;;11.09;100.00;100072.91;5049770;28;20742;-67
2022/12/25 08:27:59;;;;;;;0.40;0.40;;;;;;;11.21;100.00;100071.81;5048288;28;21781;-68
2022/12/25 08:30:26;;;;;;;0.57;0.57;;;;;;;11.28;100.00;100074.19;5048096;28;20204;-68
2022/12/25 08:32:52;;;;;;;0.57;0.57;;;;;;;11.39;100.00;100081.66;5048818;28;20213;-67
2022/12/25 08:35:19;;;;;;;0.50;0.50;;;;;;;11.41;100.00;100090.16;5046933;28;20224;-69
2022/12/25 08:37:46;;;;;;;0.40;0.40;;;;;;;11.48;100.00;100081.44;5047110;28;20200;-67
2022/12/25 08:40:14;;;;;;;0.60;0.60;;;;;;;11.64;100.00;100092.19;5046706;28;20676;-68
2022/12/25 08:42:41;;;;;;;0.40;0.40;;;;;;;11.73;100.00;100086.91;5048692;28;21002;-68
2022/12/25 08:45:09;;;;;;;0.60;0.60;;;;;;;11.81;98.83;100083.25;5047233;28;20215;-67
2022/12/25 08:47:36;;;;;;;0.40;0.40;;;;;;;11.95;99.67;100085.50;5048585;28;20680;-68
2022/12/25 08:50:03;;;;;;;0.30;0.30;;;;;;;12.02;98.57;100084.44;5046728;28;20706;-67
2022/12/25 08:52:30;;;;;;;0.50;0.50;;;;;;;12.08;97.79;100085.13;5048176;28;20201;-68
2022/12/25 08:54:57;;;;;;;0.60;0.60;;;;;;;12.16;97.94;100097.78;5048438;28;20224;-67
2022/12/25 08:57:27;;;;;;;0.60;0.60;;;;;;;12.26;97.93;100083.81;5048945;28;20196;-67
2022/12/25 08:59:55;;;;;;;0.93;0.70;;;;;;;12.27;97.50;100079.53;5048431;28;20208;-67
2022/12/25 09:02:22;;;;;;;0.33;0.33;;;;;;;12.39;95.10;100084.34;5048830;28;20228;-67
2022/12/25 09:04:49;;;;;;;0.43;0.43;;;;;;;12.38;95.28;100088.63;5047542;28;20204;-67
2022/12/25 09:07:16;;;;;;;0.40;0.40;;;;;;;12.47;94.33;100078.09;5046542;28;20308;-67
2022/12/25 09:09:43;;;;;;;0.50;0.50;;;;;;;12.56;95.00;100080.44;5048870;28;20299;-67
2022/12/25 09:12:10;;;;;;;0.50;0.50;;;;;;;12.58;93.55;100072.66;5049229;28;20209;-67
2022/12/25 09:14:38;;;;;;;0.50;0.50;;;;;;;12.55;92.74;100060.75;5044239;28;20308;-67
2022/12/25 09:17:05;;;;;;;0.43;0.43;;;;;;;12.76;92.20;100086.75;5045084;28;20577;-67
2022/12/25 09:19:32;;;;;;;0.40;0.40;;;;;;;12.78;91.97;100072.09;5046913;28;20219;-67
2022/12/25 09:21:59;;;;;;;0.50;0.50;;;;;;;12.97;92.21;100080.97;5048168;28;20639;-67
2022/12/25 09:24:26;;;;;;;1.00;1.00;;;;;;;13.06;90.33;100083.28;5047832;28;20301;-67
2022/12/25 09:26:53;;;;;;;0.60;0.60;;;;;;;13.07;90.11;100087.56;5046317;28;20196;-67
2022/12/25 09:29:19;;;;;;;0.50;0.50;;;;;;;13.11;91.00;100074.59;5047077;28;20205;-68
2022/12/25 09:31:48;;;;;;;0.50;0.50;;;;;;;13.15;88.71;100080.47;5046710;28;20204;-67
2022/12/25 09:34:14;;;;;;;0.50;0.50;;;;;;;13.23;88.91;100081.09;5042946;28;20295;-66
2022/12/25 09:36:41;;;;;;;0.40;0.40;;;;;;;13.33;87.89;100077.34;5047227;28;20227;-67
2022/12/25 09:39:08;;;;;;;0.50;0.50;;;;;;;13.34;86.89;100071.34;5045200;28;20580;-67
2022/12/25 09:41:40;;;;;;;0.47;0.47;;;;;;;13.39;86.75;100074.59;5042002;28;20223;-67
2022/12/25 09:44:13;;;;;;;0.40;0.40;;;;;;;13.46;86.46;100068.38;5046593;28;20204;-67
2022/12/25 09:46:50;;;;;;;0.53;0.53;;;;;;;13.49;86.75;100072.56;5044589;28;20198;-67
2022/12/25 09:49:21;;;;;;;0.50;0.50;;;;;;;13.61;86.16;100078.19;5045534;28;20270;-67
2022/12/25 09:51:55;;;;;;;0.53;0.53;;;;;;;13.71;84.96;100083.03;5048179;28;20638;-67
2022/12/25 09:54:27;;;;;;;0.43;0.43;;;;;;;13.67;84.74;100083.13;5046269;28;20212;-68
2022/12/25 09:56:54;;;;;;;0.60;0.60;;;;;;;13.72;85.30;100069.25;5048579;28;20224;-68
2022/12/25 09:59:24;;;;;;;0.43;0.43;;;;;;;13.79;84.65;100075.91;5049247;28;20451;-63
2022/12/25 10:02:10;;;;;;;0.50;0.50;;;;;;;13.97;85.31;100070.16;5048804;28;20445;-64
2022/12/25 10:04:56;;;;;;;0.60;0.60;;;;;;;14.08;84.09;100073.22;5051547;28;20538;-64
2022/12/25 10:07:34;;;;;;;0.50;0.50;;;;;;;14.15;83.95;100061.81;5050956;28;20201;-64
2022/12/25 10:10:15;;;;;;;0.60;0.60;;;;;;;14.20;82.89;100058.16;5052515;28;20219;-64
2022/12/25 10:12:56;;;;;;;0.50;0.50;;;;;;;14.19;82.55;100066.78;5052284;28;20297;-64
2022/12/25 10:15:31;;;;;;;0.50;0.50;;;;;;;14.18;81.85;100070.25;5052729;28;20599;-64
2022/12/25 10:18:26;;;;;;;0.50;0.50;;;;;;;14.35;82.50;100077.44;5052352;28;20209;-64
2022/12/25 10:20:56;;;;;;;0.60;0.60;;;;;;;14.35;82.88;100069.72;5051852;28;20202;-64
2022/12/25 10:23:27;;;;;;;0.63;0.63;;;;;;;14.39;81.55;100079.03;5052509;28;20243;-64
2022/12/25 10:25:54;;;;;;;0.73;0.73;;;;;;;14.29;80.41;100061.31;5052181;28;20212;-64
2022/12/25 10:28:26;;;;;;;0.50;0.50;;;;;;;14.36;78.36;100084.31;5052142;28;20207;-64
2022/12/25 10:30:55;;;;;;;0.50;0.50;;;;;;;14.42;79.63;100078.06;5051199;28;20202;-64
2022/12/25 10:33:22;;;;;;;0.40;0.40;;;;;;;14.43;78.06;100084.94;5052786;28;20197;-64
2022/12/25 10:35:49;;;;;;;0.60;0.60;;;;;;;14.56;75.22;100078.44;5053272;28;20316;-64
2022/12/25 10:38:19;;;;;;;0.60;0.60;;;;;;;14.59;76.52;100081.75;5054249;28;20320;-64
2022/12/25 10:41:05;;;;;;;0.50;0.50;;;;;;;14.56;76.92;100076.72;5053852;28;20286;-64
2022/12/25 10:43:38;;;;;;;0.50;0.50;;;;;;;14.66;76.36;100067.75;5054244;28;20200;-64
2022/12/25 10:46:10;;;;;;;0.50;0.50;;;;;;;14.71;76.88;100060.66;5054041;28;20197;-64
2022/12/25 10:48:41;;;;;;;0.40;0.40;;;;;;;14.75;74.34;100073.47;5053987;28;20742;-64
2022/12/25 10:51:08;;;;;;;0.50;0.50;;;;;;;14.73;75.96;100062.34;5053926;28;20206;-64
2022/12/25 10:53:40;;;;;;;0.43;0.43;;;;;;;14.60;73.78;100031.81;5053816;28;20201;-64
2022/12/25 10:56:15;;;;;;;0.50;0.50;;;;;;;14.79;72.35;100062.97;5053786;28;20213;-64
2022/12/25 10:58:42;;;;;;;0.50;0.50;;;;;;;14.82;73.46;100067.19;5053586;28;20199;-64
2022/12/25 11:01:10;;;;;;;0.60;0.60;;;;;;;14.81;71.61;100068.06;5053410;28;20216;-64
2022/12/25 11:03:40;;;;;;;0.50;0.50;;;;;;;14.73;72.02;100062.34;5053733;28;20197;-64
2022/12/25 11:06:21;;;;;;;0.40;0.40;;;;;;;14.84;74.18;100062.78;5053701;28;20203;-64
2022/12/25 11:08:53;;;;;;;0.40;0.40;;;;;;;14.87;70.31;100071.28;5053358;28;20202;-64
2022/12/25 11:11:20;;;;;;;0.40;0.40;;;;;;;14.88;72.86;100066.94;5053447;28;20288;-64
2022/12/25 11:13:50;;;;;;;0.60;0.60;;;;;;;14.89;71.93;100066.06;5053714;28;20197;-64
2022/12/25 11:16:27;;;;;;;0.40;0.40;;;;;;;14.87;68.88;100065.25;5053190;28;20213;-64
2022/12/25 11:18:55;;;;;;;0.40;0.40;;;;;;;14.89;69.82;100069.50;5053484;28;20552;-64
2022/12/25 11:21:24;;;;;;;0.43;0.43;;;;;;;14.98;69.10;100069.16;5053441;28;20639;-64
2022/12/25 11:23:58;;;;;;;0.40;0.40;;;;;;;14.92;69.68;100066.78;5053326;28;20196;-64
2022/12/25 11:26:26;;;;;;;0.50;0.50;;;;;;;14.98;68.22;100070.88;5053115;28;20202;-64
2022/12/25 11:28:54;;;;;;;0.47;0.47;;;;;;;15.04;69.18;100062.91;5053498;28;20197;-64
2022/12/25 11:31:23;;;;;;;0.47;0.47;;;;;;;15.01;69.27;100045.78;5052990;28;20261;-64
2022/12/25 11:33:55;;;;;;;0.50;0.50;;;;;;;14.82;69.47;100012.97;5052183;28;20204;-64
2022/12/25 11:36:28;;;;;;;0.40;0.40;;;;;;;15.04;69.31;100057.72;5052864;28;20229;-64
2022/12/25 11:39:00;;;;;;;0.47;0.47;;;;;;;15.05;68.73;100057.69;5053273;28;20197;-64
2022/12/25 11:41:33;;;;;;;0.50;0.50;;;;;;;14.98;68.41;100058.81;5052857;28;20211;-64
2022/12/25 11:44:03;;;;;;;0.53;0.53;;;;;;;15.00;69.96;100051.00;5052878;28;20561;-64
2022/12/25 11:46:40;;;;;;;0.50;0.50;;;;;;;15.01;71.17;100057.84;5053106;28;20195;-64
2022/12/25 11:49:10;;;;;;;0.40;0.40;;;;;;;15.03;69.80;100053.47;5052632;28;20283;-63
2022/12/25 11:51:41;;;;;;;0.50;0.50;;;;;;;14.94;69.13;100046.06;5053064;28;20208;-64
2022/12/25 11:54:20;;;;;;;0.40;0.40;;;;;;;15.05;70.85;100054.25;5052744;28;20197;-63
2022/12/25 11:56:46;;;;;;;0.40;0.40;;;;;;;15.02;69.49;100042.31;5049207;28;20685;-64
2022/12/25 11:59:21;;;;;;;0.60;0.60;;;;;;;15.13;67.33;100052.22;5051874;28;20216;-64
2022/12/25 12:01:52;;;;;;;0.50;0.50;;;;;;;15.04;69.98;100047.41;5051151;28;20230;-64
2022/12/25 12:04:25;;;;;;;0.50;0.50;;;;;;;15.08;71.37;100048.97;5052334;28;20227;-64
2022/12/25 12:06:56;;;;;;;0.50;0.50;;;;;;;15.12;70.46;100053.94;5052574;28;20207;-64
2022/12/25 12:09:35;;;;;;;0.40;0.40;;;;;;;15.09;68.58;100046.31;5052468;28;20584;-63
2022/12/25 12:12:08;;;;;;;0.40;0.40;;;;;;;15.06;69.85;100043.00;5052560;28;20204;-64
2022/12/25 12:14:47;;;;;;;0.50;0.50;;;;;;;15.06;69.52;100054.19;5052375;28;20208;-64
2022/12/25 12:17:17;;;;;;;0.40;0.40;;;;;;;15.06;69.51;100053.34;5051772;28;20691;-64
2022/12/25 12:19:44;;;;;;;0.40;0.40;;;;;;;15.02;69.73;100051.78;5051365;28;20204;-64
2022/12/25 12:22:19;;;;;;;0.40;0.40;;;;;;;15.08;69.89;100055.00;5051990;28;20217;-64
2022/12/25 12:24:53;;;;;;;0.43;0.43;;;;;;;15.06;68.68;100050.75;5052420;28;20203;-64
2022/12/25 12:27:25;;;;;;;0.50;0.50;;;;;;;15.09;69.49;100061.81;5051939;28;20937;-64
2022/12/25 12:29:55;;;;;;;0.43;0.43;;;;;;;15.04;69.75;100057.72;5052132;28;20200;-64
2022/12/25 12:32:33;;;;;;;0.40;0.40;;;;;;;15.10;70.52;100054.91;5052128;28;20669;-64
2022/12/25 12:35:05;;;;;;;0.50;0.50;;;;;;;15.05;70.18;100064.59;5049016;28;20672;-64
2022/12/25 12:37:35;;;;;;;0.60;0.60;;;;;;;15.14;68.80;100064.22;5051625;28;20265;-64
2022/12/25 12:40:06;;;;;;;0.40;0.40;;;;;;;15.08;69.52;100061.88;5051928;28;20200;-64
2022/12/25 12:42:39;;;;;;;0.40;0.40;;;;;;;15.09;70.92;100063.56;5049853;28;20195;-64
2022/12/25 12:45:15;;;;;;;0.50;0.50;;;;;;;15.11;70.00;100070.38;5051835;28;20644;-64
2022/12/25 12:47:46;;;;;;;0.50;0.50;;;;;;;15.18;69.51;100070.97;5051520;28;20241;-64
2022/12/25 12:50:29;;;;;;;0.50;0.50;;;;;;;15.15;70.58;100065.94;5051780;28;20235;-64
2022/12/25 12:52:56;;;;;;;0.40;0.40;;;;;;;15.14;71.21;100065.09;5050891;28;20197;-64
2022/12/25 12:55:30;;;;;;;0.60;0.60;;;;;;;15.21;70.10;100071.69;5051512;28;20204;-64
2022/12/25 12:58:01;;;;;;;0.50;0.50;;;;;;;15.06;69.38;100055.91;5051622;28;20214;-64
2022/12/25 13:00:36;;;;;;;0.50;0.50;;;;;;;15.07;68.82;100068.78;5051451;28;20258;-64
2022/12/25 13:03:23;;;;;;;0.33;0.33;;;;;;;15.03;69.93;100066.38;5051227;28;20220;-64
2022/12/25 13:05:55;;;;;;;0.40;0.40;;;;;;;15.00;70.74;100066.50;5050845;28;20250;-64
2022/12/25 13:08:35;;;;;;;0.50;0.50;;;;;;;14.92;70.71;100061.63;5051380;28;20214;-64
2022/12/25 13:11:10;;;;;;;0.40;0.40;;;;;;;15.05;72.21;100080.94;5051519;28;20197;-64
2022/12/25 13:13:41;;;;;;;0.50;0.50;;;;;;;15.00;71.29;100076.81;5051232;28;20204;-64
2022/12/25 13:16:16;;;;;;;0.50;0.50;;;;;;;14.88;71.08;100056.63;5051108;28;20210;-64
2022/12/25 13:18:43;;;;;;;0.40;0.40;;;;;;;15.00;71.62;100081.97;5051102;28;20195;-64
2022/12/25 13:21:18;;;;;;;0.50;0.50;;;;;;;14.99;72.66;100091.47;5052230;28;20207;-64
2022/12/25 13:23:45;;;;;;;0.50;0.50;;;;;;;15.03;70.20;100094.78;5049868;28;20855;-63
2022/12/25 13:26:16;;;;;;;0.50;0.50;;;;;;;15.06;69.94;100076.56;5044460;28;20543;-67
2022/12/25 13:28:47;;;;;;;0.50;0.50;;;;;;;15.18;70.17;100095.06;5048985;28;20231;-68